Time;durP1;ratioP1;P1;durP2;ratioP2;P2;SDS_P1;SDS_P2;PMS_P1;PMS_P2;Temp;Humidity;BMP_temperature;BMP_pressure;BME280_temperature;BME280_humidity;BME280_pressure;Samples;Min_cycle;Max_cycle;Signal;HPM_P1;HPM_P2
2022/03/18 00:00:38;;;;;;;;;48.25;38.50;;;;;;;;5021447;28;45340;-80
2022/03/18 00:03:03;;;;;;;;;42.25;37.25;;;;;;;;5039856;28;45252;-80
2022/03/18 00:05:29;;;;;;;;;48.75;38.50;;;;;;;;5021533;28;47065;-81
2022/03/18 00:07:54;;;;;;;;;51.00;42.00;;;;;;;;5021587;28;46995;-80
2022/03/18 00:10:20;;;;;;;;;52.00;43.00;;;;;;;;5021440;28;45289;-80
2022/03/18 00:12:46;;;;;;;;;54.50;42.00;;;;;;;;5021527;28;45297;-80
2022/03/18 00:15:12;;;;;;;;;47.75;41.00;;;;;;;;5026545;28;46367;-80
2022/03/18 00:17:37;;;;;;;;;43.00;38.25;;;;;;;;5059586;28;45279;-80
2022/03/18 00:20:04;;;;;;;;;49.50;40.25;;;;;;;;5041219;28;46165;-80
2022/03/18 00:22:29;;;;;;;;;52.00;41.75;;;;;;;;5059474;28;45562;-80
2022/03/18 00:24:54;;;;;;;;;46.25;37.00;;;;;;;;5059117;28;45427;-80
2022/03/18 00:27:19;;;;;;;;;48.00;40.25;;;;;;;;5059207;28;46349;-79
2022/03/18 00:29:44;;;;;;;;;51.50;40.25;;;;;;;;5041003;28;45367;-80
2022/03/18 00:32:10;;;;;;;;;51.00;42.75;;;;;;;;5059501;28;45338;-80
2022/03/18 00:34:35;;;;;;;;;47.25;39.50;;;;;;;;5041014;28;46263;-80
2022/03/18 00:37:00;;;;;;;;;48.75;39.00;;;;;;;;5059085;28;45410;-81
2022/03/18 00:39:26;;;;;;;;;49.00;39.00;;;;;;;;5059343;28;45292;-80
2022/03/18 00:41:51;;;;;;;;;48.75;39.50;;;;;;;;5059357;28;45339;-80
2022/03/18 00:44:16;;;;;;;;;46.50;39.50;;;;;;;;5058530;28;45311;-80
2022/03/18 00:46:42;;;;;;;;;52.50;41.25;;;;;;;;5058749;28;46480;-80
2022/03/18 00:52:06;;;;;;;;;50.00;40.00;;;;;;;;5059635;28;45314;-80
2022/03/18 00:54:35;;;;;;;;;54.25;43.75;;;;;;;;5059451;28;45212;-79
2022/03/18 00:57:01;;;;;;;;;50.75;41.75;;;;;;;;5059390;28;45396;-80
2022/03/18 00:59:26;;;;;;;;;56.25;45.50;;;;;;;;5059682;28;45372;-80
2022/03/18 01:01:52;;;;;;;;;53.25;44.00;;;;;;;;5063280;28;45289;-80
2022/03/18 01:04:21;;;;;;;;;52.75;43.25;;;;;;;;5044910;28;46285;-80
2022/03/18 01:06:47;;;;;;;;;52.75;40.75;;;;;;;;5062707;28;46027;-80
2022/03/18 01:09:12;;;;;;;;;51.25;42.50;;;;;;;;5058456;28;45753;-80
2022/03/18 01:11:38;;;;;;;;;51.25;41.00;;;;;;;;5051399;28;45213;-80
2022/03/18 01:14:03;;;;;;;;;51.00;42.00;;;;;;;;5024227;28;46016;-80
2022/03/18 01:16:28;;;;;;;;;48.00;39.25;;;;;;;;5058192;28;45720;-80
2022/03/18 01:18:53;;;;;;;;;42.25;37.75;;;;;;;;5062445;28;45425;-80
2022/03/18 01:21:18;;;;;;;;;51.75;41.25;;;;;;;;5062684;28;45559;-80
2022/03/18 01:23:44;;;;;;;;;47.25;39.50;;;;;;;;5062478;28;45466;-80
2022/03/18 01:26:09;;;;;;;;;47.25;39.25;;;;;;;;5044199;28;47154;-80
2022/03/18 01:28:34;;;;;;;;;51.25;40.25;;;;;;;;5043818;28;46017;-79
2022/03/18 01:30:59;;;;;;;;;54.25;40.25;;;;;;;;5062492;28;45336;-80
2022/03/18 01:33:25;;;;;;;;;51.25;41.50;;;;;;;;5044160;28;45497;-80
2022/03/18 01:35:50;;;;;;;;;53.00;41.25;;;;;;;;5062224;28;45500;-81
2022/03/18 01:38:17;;;;;;;;;48.00;40.00;;;;;;;;5062023;28;45406;-80
2022/03/18 01:40:42;;;;;;;;;51.00;40.00;;;;;;;;5062237;28;45427;-80
2022/03/18 01:43:09;;;;;;;;;50.50;40.00;;;;;;;;5062087;28;45370;-80
2022/03/18 01:45:34;;;;;;;;;45.25;40.50;;;;;;;;5062055;28;45243;-80
2022/03/18 01:47:59;;;;;;;;;45.75;40.50;;;;;;;;5062024;28;45181;-80
2022/03/18 01:50:24;;;;;;;;;47.75;40.00;;;;;;;;5062250;28;45233;-80
2022/03/18 01:52:50;;;;;;;;;47.75;40.00;;;;;;;;5062046;28;45280;-81
2022/03/18 01:55:15;;;;;;;;;41.00;37.00;;;;;;;;5061875;28;46611;-80
2022/03/18 01:57:43;;;;;;;;;47.00;38.75;;;;;;;;5043979;28;45326;-80
2022/03/18 02:00:08;;;;;;;;;52.50;42.50;;;;;;;;5061823;28;45352;-80
2022/03/18 02:02:34;;;;;;;;;53.50;43.00;;;;;;;;5061802;28;45265;-80
2022/03/18 02:04:59;;;;;;;;;56.75;44.75;;;;;;;;5061770;28;45858;-80
2022/03/18 02:07:24;;;;;;;;;52.50;43.25;;;;;;;;5043421;28;45348;-80
2022/03/18 02:09:50;;;;;;;;;55.75;44.25;;;;;;;;5061852;28;45283;-80
2022/03/18 02:12:15;;;;;;;;;55.75;45.00;;;;;;;;5042858;28;47568;-80
2022/03/18 02:14:42;;;;;;;;;54.25;44.50;;;;;;;;5060353;28;45390;-81
2022/03/18 02:17:08;;;;;;;;;55.00;44.00;;;;;;;;5041521;28;45373;-80
2022/03/18 02:19:34;;;;;;;;;54.25;42.50;;;;;;;;5023512;28;45404;-80
2022/03/18 02:22:00;;;;;;;;;54.75;44.75;;;;;;;;5041104;28;45283;-80
2022/03/18 02:24:25;;;;;;;;;53.75;45.25;;;;;;;;5023127;28;47201;-80
2022/03/18 02:26:51;;;;;;;;;54.50;43.75;;;;;;;;5041470;28;45373;-80
2022/03/18 02:29:21;;;;;;;;;49.75;40.50;;;;;;;;5041456;28;45215;-80
2022/03/18 02:31:46;;;;;;;;;51.00;41.50;;;;;;;;5023400;28;47336;-80
2022/03/18 02:34:12;;;;;;;;;50.75;40.25;;;;;;;;5041191;28;45546;-80
2022/03/18 02:36:37;;;;;;;;;52.50;40.50;;;;;;;;5022971;28;46041;-80
2022/03/18 02:39:03;;;;;;;;;52.25;43.25;;;;;;;;5041369;28;45499;-80
2022/03/18 02:41:28;;;;;;;;;51.25;40.25;;;;;;;;5022989;28;45900;-80
2022/03/18 02:43:53;;;;;;;;;54.00;44.25;;;;;;;;5022911;28;47135;-79
2022/03/18 02:46:18;;;;;;;;;53.00;44.25;;;;;;;;5041109;28;45310;-80
2022/03/18 02:48:44;;;;;;;;;59.00;47.25;;;;;;;;5023184;28;45474;-79
2022/03/18 02:51:09;;;;;;;;;53.50;45.00;;;;;;;;5041058;28;45169;-80
2022/03/18 02:53:35;;;;;;;;;46.75;40.25;;;;;;;;5022939;28;47495;-80
2022/03/18 02:56:02;;;;;;;;;55.75;45.50;;;;;;;;5040948;28;45213;-79
2022/03/18 02:58:27;;;;;;;;;53.00;42.75;;;;;;;;5040680;28;45299;-79
2022/03/18 03:00:53;;;;;;;;;54.00;43.50;;;;;;;;5022507;28;46359;-80
2022/03/18 03:03:19;;;;;;;;;54.25;43.25;;;;;;;;5040824;28;46571;-80
2022/03/18 03:08:29;;;;;;;;;53.00;43.50;;;;;;;;5040593;28;45847;-80
2022/03/18 03:10:54;;;;;;;;;57.50;47.00;;;;;;;;5024111;28;45383;-79
2022/03/18 03:13:19;;;;;;;;;50.00;40.75;;;;;;;;5020437;28;46107;-79
2022/03/18 03:15:44;;;;;;;;;53.75;44.50;;;;;;;;5030350;28;45388;-80
2022/03/18 03:18:10;;;;;;;;;52.00;44.25;;;;;;;;5040625;28;45389;-79
2022/03/18 03:20:35;;;;;;;;;52.50;41.75;;;;;;;;5040513;28;45326;-80
2022/03/18 03:23:01;;;;;;;;;55.00;43.25;;;;;;;;5039106;28;45344;-81
2022/03/18 03:25:26;;;;;;;;;46.50;40.50;;;;;;;;5040231;28;45400;-80
2022/03/18 03:27:52;;;;;;;;;48.75;40.50;;;;;;;;5040432;28;45372;-80
2022/03/18 03:30:17;;;;;;;;;54.50;44.00;;;;;;;;5040057;28;45393;-80
2022/03/18 03:32:42;;;;;;;;;53.75;44.50;;;;;;;;5040141;28;46095;-79
2022/03/18 03:35:08;;;;;;;;;57.00;44.50;;;;;;;;5040238;28;45357;-79
2022/03/18 03:37:34;;;;;;;;;43.00;39.50;;;;;;;;5040322;28;45257;-79
2022/03/18 03:39:59;;;;;;;;;52.50;43.50;;;;;;;;5022186;28;47034;-80
2022/03/18 03:42:24;;;;;;;;;46.75;40.50;;;;;;;;5039887;28;45227;-79
2022/03/18 03:44:49;;;;;;;;;44.50;39.75;;;;;;;;5021920;28;45280;-80
2022/03/18 03:47:15;;;;;;;;;48.00;40.25;;;;;;;;5040195;28;45509;-80
2022/03/18 03:49:40;;;;;;;;;46.25;40.25;;;;;;;;5040104;28;45241;-80
2022/03/18 03:52:08;;;;;;;;;49.75;41.50;;;;;;;;5039887;28;45245;-80
2022/03/18 03:54:34;;;;;;;;;54.00;44.00;;;;;;;;5040079;28;45375;-79
2022/03/18 03:56:59;;;;;;;;;45.25;40.25;;;;;;;;5022072;28;45297;-79
2022/03/18 03:59:24;;;;;;;;;52.00;43.25;;;;;;;;5021552;28;46196;-80
2022/03/18 04:01:49;;;;;;;;;51.00;40.50;;;;;;;;5039672;28;45387;-80
2022/03/18 04:04:14;;;;;;;;;54.50;44.50;;;;;;;;5039819;28;45437;-80
2022/03/18 04:06:40;;;;;;;;;48.50;39.50;;;;;;;;5039889;28;45347;-80
2022/03/18 04:09:05;;;;;;;;;46.00;40.25;;;;;;;;5021732;28;45957;-79
2022/03/18 04:11:30;;;;;;;;;52.75;41.25;;;;;;;;5039685;28;45448;-80
2022/03/18 04:13:55;;;;;;;;;51.50;42.75;;;;;;;;5039622;28;45301;-80
2022/03/18 04:16:21;;;;;;;;;53.75;44.75;;;;;;;;5024784;28;45319;-79
2022/03/18 04:18:46;;;;;;;;;45.75;40.00;;;;;;;;5019604;28;45395;-79
2022/03/18 04:21:11;;;;;;;;;49.75;39.50;;;;;;;;5019120;28;45302;-79
2022/03/18 04:23:37;;;;;;;;;37.00;33.50;;;;;;;;5019590;28;45298;-79
2022/03/18 04:26:02;;;;;;;;;50.25;41.75;;;;;;;;5019695;28;45336;-80
2022/03/18 04:28:27;;;;;;;;;42.25;36.50;;;;;;;;5001255;28;47286;-80
2022/03/18 04:30:53;;;;;;;;;46.75;39.00;;;;;;;;5001622;28;46937;-80
2022/03/18 04:33:18;;;;;;;;;52.75;42.25;;;;;;;;5019560;28;45237;-79
2022/03/18 04:35:44;;;;;;;;;52.25;40.75;;;;;;;;5001415;28;45398;-79
2022/03/18 04:38:09;;;;;;;;;55.25;43.50;;;;;;;;5019341;28;45313;-79
2022/03/18 04:40:34;;;;;;;;;52.75;40.75;;;;;;;;5001568;28;47074;-80
2022/03/18 04:43:00;;;;;;;;;50.25;41.25;;;;;;;;5019264;28;45380;-80
2022/03/18 04:45:25;;;;;;;;;51.50;41.50;;;;;;;;5019206;28;45608;-80
2022/03/18 04:47:50;;;;;;;;;48.25;40.50;;;;;;;;5001426;28;46805;-79
2022/03/18 04:50:15;;;;;;;;;52.50;43.50;;;;;;;;5018730;28;46604;-80
2022/03/18 04:52:41;;;;;;;;;47.00;40.25;;;;;;;;5019184;28;45330;-80
2022/03/18 04:55:06;;;;;;;;;39.00;36.50;;;;;;;;5019412;28;45578;-79
2022/03/18 04:57:31;;;;;;;;;47.50;38.50;;;;;;;;5001134;28;48110;-79
2022/03/18 04:59:57;;;;;;;;;47.25;35.75;;;;;;;;5018738;28;45258;-80
2022/03/18 05:02:24;;;;;;;;;48.00;41.00;;;;;;;;5001168;28;45322;-79
2022/03/18 05:04:50;;;;;;;;;47.25;39.25;;;;;;;;5019266;28;45341;-80
2022/03/18 05:07:15;;;;;;;;;50.50;43.00;;;;;;;;5001079;28;47182;-79
2022/03/18 05:09:41;;;;;;;;;53.50;43.00;;;;;;;;5006911;28;47110;-79
2022/03/18 05:12:07;;;;;;;;;53.50;43.00;;;;;;;;5038994;28;45534;-80
2022/03/18 05:14:34;;;;;;;;;47.75;40.75;;;;;;;;5021165;28;45452;-81
2022/03/18 05:16:59;;;;;;;;;51.50;42.00;;;;;;;;5059421;28;45380;-81
2022/03/18 05:19:24;;;;;;;;;48.75;41.50;;;;;;;;5040608;28;48240;-81
2022/03/18 05:21:49;;;;;;;;;48.75;42.00;;;;;;;;5040551;28;45896;-80
2022/03/18 05:24:15;;;;;;;;;52.50;42.25;;;;;;;;5059077;28;45205;-81
2022/03/18 05:26:41;;;;;;;;;61.00;49.25;;;;;;;;5051563;28;45433;-78
2022/03/18 05:29:06;;;;;;;;;62.00;49.25;;;;;;;;5038352;28;45379;-78
2022/03/18 05:31:32;;;;;;;;;65.75;51.50;;;;;;;;5038723;28;45257;-79
2022/03/18 05:33:57;;;;;;;;;69.00;52.50;;;;;;;;5020130;28;45246;-79
2022/03/18 05:36:22;;;;;;;;;64.25;53.00;;;;;;;;5038505;28;45268;-78
2022/03/18 05:38:48;;;;;;;;;62.75;50.75;;;;;;;;5038536;28;45583;-79
2022/03/18 05:41:13;;;;;;;;;58.75;46.50;;;;;;;;5020546;28;46379;-79
2022/03/18 05:43:39;;;;;;;;;60.75;48.50;;;;;;;;5038546;28;45254;-79
2022/03/18 05:46:05;;;;;;;;;73.75;57.50;;;;;;;;5038394;28;45396;-78
2022/03/18 05:48:30;;;;;;;;;64.75;53.25;;;;;;;;5023762;28;47728;-79
2022/03/18 05:50:55;;;;;;;;;65.50;52.00;;;;;;;;5041800;28;45408;-78
2022/03/18 05:53:20;;;;;;;;;67.25;53.75;;;;;;;;5023857;28;45297;-78
2022/03/18 05:58:30;;;;;;;;;79.25;62.75;;;;;;;;5041223;28;45351;-78
2022/03/18 06:00:55;;;;;;;;;79.25;61.00;;;;;;;;5035036;28;45509;-79
2022/03/18 06:03:21;;;;;;;;;82.75;67.75;;;;;;;;5061269;28;45678;-79
2022/03/18 06:05:46;;;;;;;;;86.00;72.25;;;;;;;;5061506;28;45410;-79
2022/03/18 06:13:39;;;;;;;;;82.25;65.25;;;;;;;;5061525;28;45357;-84
2022/03/18 06:16:05;;;;;;;;;69.75;53.00;;;;;;;;5045953;28;45580;-79
2022/03/18 06:18:30;;;;;;;;;61.50;49.00;;;;;;;;5025648;28;48368;-82
2022/03/18 06:20:55;;;;;;;;;57.50;47.00;;;;;;;;5043723;28;45372;-82
2022/03/18 06:23:21;;;;;;;;;62.25;50.75;;;;;;;;5047900;28;45404;-82
2022/03/18 06:25:46;;;;;;;;;82.00;64.50;;;;;;;;5027242;28;47368;-80
2022/03/18 06:28:11;;;;;;;;;90.50;77.25;;;;;;;;5061014;28;45895;-83
2022/03/18 06:30:37;;;;;;;;;85.50;70.50;;;;;;;;5061542;28;45348;-82
2022/03/18 06:33:02;;;;;;;;;86.00;69.00;;;;;;;;5061580;28;45432;-83
2022/03/18 06:35:27;;;;;;;;;76.00;59.75;;;;;;;;5061380;28;45319;-80
2022/03/18 06:37:54;;;;;;;;;82.00;66.00;;;;;;;;5060896;28;45545;-82
2022/03/18 06:40:19;;;;;;;;;62.50;48.75;;;;;;;;5050590;28;45444;-82
2022/03/18 06:42:44;;;;;;;;;57.75;48.00;;;;;;;;5066695;28;45177;-81
2022/03/18 06:45:10;;;;;;;;;105.50;93.00;;;;;;;;5070483;28;45291;-79
2022/03/18 06:47:35;;;;;;;;;91.50;77.25;;;;;;;;5068780;28;46199;-80
2022/03/18 06:50:00;;;;;;;;;76.75;59.00;;;;;;;;5068538;28;45213;-81
2022/03/18 06:52:25;;;;;;;;;73.00;54.75;;;;;;;;5051439;28;45314;-80
2022/03/18 06:54:51;;;;;;;;;75.25;58.25;;;;;;;;5050142;28;47383;-79
2022/03/18 06:57:16;;;;;;;;;66.75;53.00;;;;;;;;5071185;28;45431;-80
2022/03/18 06:59:41;;;;;;;;;84.00;63.25;;;;;;;;5070393;28;45351;-80
2022/03/18 07:02:06;;;;;;;;;71.50;56.75;;;;;;;;5064129;28;45267;-82
2022/03/18 07:04:31;;;;;;;;;74.50;56.75;;;;;;;;5075363;28;45264;-81
2022/03/18 07:06:56;;;;;;;;;80.50;61.25;;;;;;;;5072967;28;45233;-80
2022/03/18 07:09:22;;;;;;;;;58.75;48.50;;;;;;;;5066252;28;45300;-78
2022/03/18 07:11:47;;;;;;;;;62.00;49.75;;;;;;;;5063816;28;45294;-79
2022/03/18 07:14:12;;;;;;;;;64.25;50.75;;;;;;;;5060804;28;45271;-84
2022/03/18 07:19:21;;;;;;;;;76.25;59.50;;;;;;;;5062066;28;45363;-83
2022/03/18 07:21:47;;;;;;;;;71.00;57.00;;;;;;;;5044795;28;45597;-77
2022/03/18 07:24:12;;;;;;;;;73.00;57.25;;;;;;;;5043746;28;45881;-81
2022/03/18 07:26:37;;;;;;;;;78.75;60.50;;;;;;;;5061782;28;45314;-80
2022/03/18 07:29:04;;;;;;;;;83.75;68.50;;;;;;;;5042154;28;45293;-79
2022/03/18 07:31:30;;;;;;;;;73.25;56.25;;;;;;;;5040918;28;45433;-78
2022/03/18 07:33:55;;;;;;;;;116.00;100.50;;;;;;;;5060422;28;45294;-78
2022/03/18 07:36:20;;;;;;;;;83.50;68.00;;;;;;;;5060478;28;45386;-79
2022/03/18 07:38:45;;;;;;;;;57.25;45.00;;;;;;;;5041433;28;46063;-78
2022/03/18 07:41:11;;;;;;;;;51.50;39.75;;;;;;;;5046817;28;45438;-77
2022/03/18 07:43:37;;;;;;;;;56.50;46.75;;;;;;;;5041940;28;46172;-78
2022/03/18 07:46:02;;;;;;;;;116.75;95.75;;;;;;;;5041922;28;47421;-76
2022/03/18 07:48:27;;;;;;;;;125.00;106.33;;;;;;;;5060008;28;45347;-76
2022/03/18 07:50:52;;;;;;;;;117.67;97.33;;;;;;;;5060340;28;45240;-76
2022/03/18 07:53:18;;;;;;;;;106.50;92.50;;;;;;;;5059921;28;45314;-77
2022/03/18 07:55:43;;;;;;;;;96.25;80.50;;;;;;;;5057868;28;46038;-79
2022/03/18 07:58:08;;;;;;;;;57.50;45.25;;;;;;;;5060060;28;45900;-77
2022/03/18 08:00:34;;;;;;;;;46.00;38.50;;;;;;;;5059984;28;45269;-77
2022/03/18 08:02:59;;;;;;;;;58.50;49.00;;;;;;;;5041702;28;46080;-81
2022/03/18 08:05:25;;;;;;;;;100.50;87.50;;;;;;;;5041601;28;47473;-80
2022/03/18 08:07:50;;;;;;;;;109.33;97.67;;;;;;;;5059753;28;45221;-79
2022/03/18 08:10:17;;;;;;;;;69.50;56.75;;;;;;;;5059113;28;45260;-77
2022/03/18 08:12:43;;;;;;;;;137.00;112.00;;;;;;;;5059919;28;45305;-77
2022/03/18 08:15:10;;;;;;;;;80.75;65.75;;;;;;;;5057361;28;46395;-78
2022/03/18 08:17:36;;;;;;;;;86.50;73.50;;;;;;;;5059656;28;45269;-81
2022/03/18 08:20:02;;;;;;;;;71.75;55.75;;;;;;;;5060817;28;45288;-79
2022/03/18 08:22:27;;;;;;;;;101.75;90.50;;;;;;;;5040729;28;47006;-78
2022/03/18 08:24:52;;;;;;;;;89.75;69.25;;;;;;;;5060589;28;46765;-76
2022/03/18 08:27:18;;;;;;;;;114.00;100.00;;;;;;;;5059467;28;45466;-76
2022/03/18 08:29:45;;;;;;;;;81.75;63.75;;;;;;;;5043214;28;45407;-79
2022/03/18 08:32:12;;;;;;;;;88.75;79.75;;;;;;;;5059472;28;46080;-77
2022/03/18 08:34:37;;;;;;;;;90.50;77.25;;;;;;;;5060930;28;45600;-80
2022/03/18 08:37:05;;;;;;;;;100.75;86.75;;;;;;;;5060172;28;45388;-81
2022/03/18 08:39:31;;;;;;;;;84.25;70.50;;;;;;;;5061440;28;45331;-80
2022/03/18 08:41:56;;;;;;;;;118.00;101.50;;;;;;;;5060138;28;45303;-81
2022/03/18 08:44:22;;;;;;;;;73.75;55.75;;;;;;;;5059968;28;45611;-83
2022/03/18 08:46:47;;;;;;;;;76.50;57.00;;;;;;;;5058693;28;45290;-78
2022/03/18 08:49:12;;;;;;;;;76.75;58.50;;;;;;;;5059588;28;45323;-79
2022/03/18 08:51:38;;;;;;;;;88.25;77.75;;;;;;;;5038374;28;46026;-79
2022/03/18 08:54:04;;;;;;;;;77.50;59.00;;;;;;;;5058275;28;45433;-78
2022/03/18 08:56:30;;;;;;;;;58.00;44.50;;;;;;;;5057278;28;45307;-74
2022/03/18 08:58:55;;;;;;;;;95.75;82.25;;;;;;;;5059189;28;45481;-79
2022/03/18 09:01:20;;;;;;;;;64.50;49.00;;;;;;;;5062641;28;45209;-77
2022/03/18 09:03:47;;;;;;;;;74.00;58.00;;;;;;;;5040636;28;47318;-79
2022/03/18 09:06:12;;;;;;;;;69.50;53.75;;;;;;;;5044639;28;45954;-81
2022/03/18 09:08:37;;;;;;;;;72.50;55.50;;;;;;;;5042862;28;45343;-78
2022/03/18 09:11:03;;;;;;;;;82.50;67.50;;;;;;;;5040988;28;46268;-77
2022/03/18 09:13:28;;;;;;;;;76.25;63.50;;;;;;;;5061742;28;45386;-79
2022/03/18 09:15:53;;;;;;;;;58.75;47.75;;;;;;;;5064219;28;45130;-81
2022/03/18 09:18:18;;;;;;;;;60.75;46.50;;;;;;;;5045872;28;45241;-81
2022/03/18 09:20:44;;;;;;;;;30.25;29.25;;;;;;;;5067034;28;45564;-80
2022/03/18 09:23:09;;;;;;;;;78.25;61.25;;;;;;;;5064737;28;45555;-78
2022/03/18 09:25:35;;;;;;;;;91.50;76.00;;;;;;;;5063146;28;45332;-79
2022/03/18 09:28:00;;;;;;;;;68.00;55.50;;;;;;;;5047042;28;45494;-81
2022/03/18 09:30:26;;;;;;;;;64.00;51.00;;;;;;;;5045498;28;46072;-81
2022/03/18 09:32:51;;;;;;;;;60.25;49.00;;;;;;;;5065196;28;46082;-80
2022/03/18 09:35:16;;;;;;;;;93.25;79.25;;;;;;;;5063779;28;45285;-80
2022/03/18 09:37:41;;;;;;;;;78.00;64.25;;;;;;;;5044247;28;45358;-80
2022/03/18 09:40:08;;;;;;;;;32.75;30.50;;;;;;;;5062275;28;45425;-81
2022/03/18 09:42:34;;;;;;;;;59.00;47.75;;;;;;;;5043962;28;47406;-81
2022/03/18 09:44:59;;;;;;;;;43.75;37.50;;;;;;;;5061928;28;45263;-81
2022/03/18 09:47:25;;;;;;;;;53.50;43.00;;;;;;;;5062086;28;45252;-81
2022/03/18 09:49:51;;;;;;;;;97.75;83.25;;;;;;;;5043335;28;46059;-80
2022/03/18 09:52:18;;;;;;;;;51.50;40.00;;;;;;;;5043631;28;47571;-80
2022/03/18 09:54:43;;;;;;;;;34.25;32.00;;;;;;;;5043870;28;45337;-81
2022/03/18 09:57:08;;;;;;;;;29.25;27.50;;;;;;;;5043861;28;45335;-79
2022/03/18 09:59:33;;;;;;;;;76.00;57.50;;;;;;;;5043588;28;47318;-79
2022/03/18 10:02:17;;;;;;;;;27.25;27.25;;;;;;;;5062367;28;46360;-80
2022/03/18 10:04:56;;;;;;;;;78.50;65.25;;;;;;;;5044100;28;45293;-80
2022/03/18 10:07:22;;;;;;;;;59.00;47.50;;;;;;;;5058447;28;45319;-83
2022/03/18 10:09:48;;;;;;;;;84.00;73.00;;;;;;;;5058512;28;45335;-83
2022/03/18 10:12:33;;;;;;;;;79.50;66.75;;;;;;;;5064415;28;45350;-79
2022/03/18 10:15:05;;;;;;;;;23.75;23.75;;;;;;;;5064214;28;45372;-81
2022/03/18 10:17:40;;;;;;;;;42.00;36.00;;;;;;;;5064555;28;45340;-81
2022/03/18 10:20:06;;;;;;;;;46.75;38.00;;;;;;;;5062240;28;45532;-80
2022/03/18 10:22:32;;;;;;;;;39.75;34.75;;;;;;;;5061987;28;45322;-78
2022/03/18 10:24:57;;;;;;;;;68.50;52.00;;;;;;;;5064578;28;45596;-80
2022/03/18 10:27:23;;;;;;;;;29.00;23.33;;;;;;;;5063590;28;45405;-81
2022/03/18 10:29:54;;;;;;;;;38.75;33.00;;;;;;;;5068055;28;45418;-81
2022/03/18 10:32:20;;;;;;;;;74.00;61.00;;;;;;;;5065569;28;45580;-82
2022/03/18 10:37:41;;;;;;;;;33.75;30.25;;;;;;;;5063401;28;45434;-78
2022/03/18 10:40:06;;;;;;;;;27.67;26.00;;;;;;;;5058886;28;45425;-75
2022/03/18 10:42:31;;;;;;;;;28.50;27.75;;;;;;;;5055997;28;47837;-80
2022/03/18 10:44:59;;;;;;;;;54.50;42.25;;;;;;;;5064190;28;45378;-77
2022/03/18 10:47:27;;;;;;;;;97.50;85.50;;;;;;;;5061954;28;45525;-76
2022/03/18 10:50:10;;;;;;;;;117.25;103.25;;;;;;;;5061580;28;45537;-75
2022/03/18 10:52:58;;;;;;;;;71.25;58.25;;;;;;;;5036126;28;48330;-75
2022/03/18 10:55:26;;;;;;;;;72.75;58.50;;;;;;;;5049391;28;45448;-76
2022/03/18 10:57:53;;;;;;;;;81.75;74.50;;;;;;;;5044304;28;44730;-75
2022/03/18 11:00:19;;;;;;;;;61.75;49.25;;;;;;;;5061825;28;45461;-76
2022/03/18 11:02:47;;;;;;;;;71.75;58.75;;;;;;;;5060864;28;45439;-75
2022/03/18 11:05:13;;;;;;;;;104.75;96.75;;;;;;;;5060945;28;45296;-75
2022/03/18 11:07:41;;;;;;;;;29.67;28.67;;;;;;;;5043444;28;45310;-76
2022/03/18 11:12:53;;;;;;;;;28.67;27.00;;;;;;;;5060465;28;45323;-75
2022/03/18 11:15:19;;;;;;;;;80.00;73.25;;;;;;;;5060645;28;45320;-76
2022/03/18 11:17:45;;;;;;;;;19.33;18.00;;;;;;;;5061504;28;45322;-74
2022/03/18 11:20:11;;;;;;;;;71.00;55.50;;;;;;;;5060727;28;45418;-76
2022/03/18 11:22:37;;;;;;;;;50.75;40.50;;;;;;;;5060493;28;45356;-76
2022/03/18 11:25:03;;;;;;;;;39.33;34.00;;;;;;;;5060441;28;45322;-76
2022/03/18 11:27:28;;;;;;;;;60.50;48.50;;;;;;;;5060600;28;45296;-76
2022/03/18 11:30:12;;;;;;;;;16.00;15.00;;;;;;;;5042764;28;46189;-76
2022/03/18 11:32:38;;;;;;;;;82.75;75.75;;;;;;;;5065253;28;45340;-77
2022/03/18 11:35:06;;;;;;;;;37.00;31.67;;;;;;;;5060935;28;45418;-75
2022/03/18 11:37:33;;;;;;;;;86.75;79.25;;;;;;;;5060916;28;45292;-76
2022/03/18 11:40:17;;;;;;;;;48.50;37.75;;;;;;;;5043729;28;46733;-77
2022/03/18 11:42:43;;;;;;;;;25.67;22.33;;;;;;;;5060650;28;45666;-79
2022/03/18 11:45:09;;;;;;;;;56.75;45.25;;;;;;;;5060304;28;45375;-79
2022/03/18 11:47:38;;;;;;;;;45.25;37.50;;;;;;;;5062840;28;45815;-75
2022/03/18 11:50:23;;;;;;;;;35.00;31.33;;;;;;;;5061913;28;45239;-78
2022/03/18 11:52:57;;;;;;;;;25.00;23.67;;;;;;;;5061839;28;45634;-76
2022/03/18 11:55:23;;;;;;;;;16.00;15.33;;;;;;;;5064049;28;45340;-77
2022/03/18 11:57:48;;;;;;;;;18.00;16.33;;;;;;;;5045154;28;45384;-78
2022/03/18 12:00:29;;;;;;;;;17.00;16.33;;;;;;;;5043906;28;45920;-77
2022/03/18 12:02:54;;;;;;;;;22.00;22.00;;;;;;;;5060274;28;46505;-76
2022/03/18 12:05:20;;;;;;;;;19.67;18.00;;;;;;;;5060311;28;45304;-75
2022/03/18 12:07:47;;;;;;;;;17.67;17.33;;;;;;;;5060406;28;45157;-75
2022/03/18 12:10:18;;;;;;;;;19.00;17.67;;;;;;;;5061188;28;45589;-76
2022/03/18 12:12:44;;;;;;;;;51.00;42.00;;;;;;;;5061331;28;45379;-77
2022/03/18 12:15:10;;;;;;;;;48.75;39.25;;;;;;;;5055451;28;45475;-79
2022/03/18 12:17:39;;;;;;;;;9.00;8.67;;;;;;;;5040717;28;45347;-77
2022/03/18 12:20:06;;;;;;;;;30.67;27.33;;;;;;;;5041970;28;45297;-77
2022/03/18 12:22:36;;;;;;;;;20.00;18.00;;;;;;;;5023246;28;47341;-76
2022/03/18 12:25:01;;;;;;;;;70.75;56.50;;;;;;;;5039757;28;45340;-76
2022/03/18 12:27:28;;;;;;;;;98.50;86.50;;;;;;;;5022717;28;45249;-76
2022/03/18 12:30:00;;;;;;;;;64.50;51.75;;;;;;;;5026207;28;45479;-76
2022/03/18 12:32:26;;;;;;;;;65.00;50.75;;;;;;;;5038631;28;47336;-74
2022/03/18 12:34:52;;;;;;;;;39.67;33.33;;;;;;;;5058619;28;45277;-76
2022/03/18 12:37:20;;;;;;;;;57.00;45.75;;;;;;;;5059041;28;45479;-75
2022/03/18 12:39:46;;;;;;;;;68.50;53.25;;;;;;;;5059282;28;45279;-77
2022/03/18 12:42:12;;;;;;;;;76.50;68.25;;;;;;;;5041446;28;47255;-76
2022/03/18 12:44:37;;;;;;;;;42.50;35.50;;;;;;;;5059301;28;45257;-77
2022/03/18 12:47:05;;;;;;;;;64.50;49.75;;;;;;;;5041531;28;45426;-76
2022/03/18 12:49:31;;;;;;;;;28.67;24.67;;;;;;;;5059354;28;45425;-76
2022/03/18 12:51:57;;;;;;;;;20.00;17.33;;;;;;;;5063575;28;45358;-79
2022/03/18 12:54:22;;;;;;;;;13.67;10.67;;;;;;;;5043958;28;45221;-76
2022/03/18 12:56:47;;;;;;;;;64.50;52.75;;;;;;;;5062577;28;45263;-76
2022/03/18 12:59:14;;;;;;;;;38.00;30.50;;;;;;;;5063131;28;45506;-75
2022/03/18 13:01:49;;;;;;;;;67.50;54.25;;;;;;;;5063142;28;45933;-82
2022/03/18 13:04:17;;;;;;;;;70.75;59.25;;;;;;;;5054095;28;45204;-84
2022/03/18 13:06:42;;;;;;;;;21.67;20.33;;;;;;;;5058123;28;45517;-82
2022/03/18 13:09:09;;;;;;;;;40.00;32.33;;;;;;;;5058236;28;45891;-84
2022/03/18 13:11:35;;;;;;;;;56.25;44.00;;;;;;;;5062783;28;46452;-81
2022/03/18 13:14:01;;;;;;;;;12.33;11.00;;;;;;;;5060111;28;45410;-81
2022/03/18 13:16:34;;;;;;;;;59.00;47.00;;;;;;;;5043483;28;45352;-84
2022/03/18 13:19:00;;;;;;;;;66.75;52.75;;;;;;;;5059520;28;45386;-83
2022/03/18 13:21:25;;;;;;;;;65.00;50.75;;;;;;;;5042932;28;48232;-86
2022/03/18 13:23:51;;;;;;;;;74.00;66.25;;;;;;;;5045681;28;45344;-81
2022/03/18 13:26:17;;;;;;;;;76.75;67.25;;;;;;;;5059631;28;45232;-82
2022/03/18 13:28:42;;;;;;;;;71.50;60.25;;;;;;;;5046470;28;46962;-82
2022/03/18 13:33:54;;;;;;;;;30.00;28.33;;;;;;;;5058954;28;45229;-81
2022/03/18 13:36:29;;;;;;;;;38.00;33.00;;;;;;;;5061005;28;45577;-82
2022/03/18 13:38:56;;;;;;;;;63.00;48.00;;;;;;;;5063636;28;45555;-83
2022/03/18 13:41:22;;;;;;;;;27.33;25.33;;;;;;;;5044617;28;46059;-82
2022/03/18 13:43:54;;;;;;;;;31.67;29.00;;;;;;;;5061292;28;45480;-83
2022/03/18 13:46:21;;;;;;;;;58.00;44.75;;;;;;;;5043913;28;45450;-81
2022/03/18 13:48:47;;;;;;;;;32.67;28.67;;;;;;;;5085647;28;45256;-81
2022/03/18 13:51:30;;;;;;;;;38.67;31.67;;;;;;;;5062110;28;45343;-82
2022/03/18 13:54:08;;;;;;;;;53.33;42.00;;;;;;;;5084944;28;45426;-80
2022/03/18 13:56:35;;;;;;;;;42.67;36.33;;;;;;;;5085192;28;45397;-79
2022/03/18 13:59:14;;;;;;;;;17.33;16.00;;;;;;;;5081828;28;45387;-78
2022/03/18 14:01:58;;;;;;;;;13.33;12.67;;;;;;;;5077973;28;45402;-78
2022/03/18 14:04:24;;;;;;;;;35.33;30.67;;;;;;;;5066335;28;45282;-82
2022/03/18 14:07:01;;;;;;;;;48.67;38.67;;;;;;;;5082625;28;45244;-79
2022/03/18 14:09:27;;;;;;;;;89.25;81.50;;;;;;;;5069218;28;45496;-81
2022/03/18 14:12:09;;;;;;;;;68.75;56.50;;;;;;;;5059541;28;45366;-83
2022/03/18 14:14:36;;;;;;;;;106.50;98.50;;;;;;;;5062990;28;45386;-80
2022/03/18 14:17:08;;;;;;;;;51.50;40.75;;;;;;;;5062216;28;45319;-84
2022/03/18 14:19:44;;;;;;;;;47.33;40.33;;;;;;;;5045098;28;47046;-83
2022/03/18 14:22:09;;;;;;;;;71.00;57.75;;;;;;;;5068085;28;46082;-86
2022/03/18 14:24:35;;;;;;;;;34.00;29.67;;;;;;;;5051124;28;45349;-83
2022/03/18 14:27:00;;;;;;;;;69.50;56.00;;;;;;;;5047223;28;45323;-83
2022/03/18 14:29:31;;;;;;;;;99.00;89.50;;;;;;;;5067635;28;45496;-83
2022/03/18 14:31:56;;;;;;;;;71.50;61.25;;;;;;;;5065329;28;45684;-85
2022/03/18 14:34:21;;;;;;;;;64.75;50.00;;;;;;;;5044044;28;45237;-83
2022/03/18 14:36:46;;;;;;;;;54.00;43.67;;;;;;;;5043713;28;45177;-80